Slidell, Louisiana
Current Conditions -  °F | °C
As of 7:53 AM on Thursday 23 Oct 2014 (Local Time) from KASD Reporting Station
Clear Clear  
Wind Chill: 46°   Ceiling: Unl
Heat Index: 48°   Visibility: 10mi
Dew Point: 45°   Wind: 5mph
Humidity: 89%   Direction: 20°NNE
Pressure: 30.1"   Gusts: NA
Location:  30.28°N, 89.78°W
Report Text: KASD 231253Z AUTO 02004KT 10SM CLR 09/07 A3010 RMK AO2 SLP192 T00890072
Loading
Personal Weather Stations






























Interactive Weather Map
Tropical Storm Tracking
New forecast layout! Learn more

10-Day Weather Forecast

Advertisements
Track Severe Weather on mobile